createdAt,value
2019-06-20T00:00:39.062Z,8.18
2019-06-20T00:03:09.687Z,8.55
2019-06-20T00:05:39.884Z,8.88
2019-06-20T00:08:10.301Z,9.50
2019-06-20T00:10:40.726Z,9.73
2019-06-20T00:13:11.091Z,9.60
2019-06-20T00:15:41.691Z,8.95
2019-06-20T00:18:11.970Z,8.55
2019-06-20T00:20:42.435Z,8.57
2019-06-20T00:23:12.958Z,7.87
2019-06-20T00:25:43.210Z,7.92
2019-06-20T00:28:13.635Z,7.70
2019-06-20T00:30:43.934Z,8.40
2019-06-20T00:33:14.118Z,10.95
2019-06-20T00:35:44.242Z,9.25
2019-06-20T00:38:14.844Z,8.00
2019-06-20T00:40:45.501Z,8.20
2019-06-20T00:43:17.790Z,8.85
2019-06-20T00:45:47.555Z,8.10
2019-06-20T00:48:18.005Z,7.70
2019-06-20T00:50:48.498Z,9.45
2019-06-20T00:53:18.855Z,8.60
2019-06-20T00:55:49.029Z,7.75
2019-06-20T00:58:19.139Z,6.92
2019-06-20T01:00:50.429Z,6.87
2019-06-20T01:03:22.160Z,6.37
2019-06-20T01:05:52.683Z,5.08
2019-06-20T01:08:22.990Z,7.67
2019-06-20T01:10:53.409Z,5.87
2019-06-20T01:13:33.160Z,5.90
2019-06-20T01:15:55.291Z,5.40
2019-06-20T01:18:25.450Z,5.90
2019-06-20T01:20:55.565Z,5.83
2019-06-20T01:23:26.032Z,5.60
2019-06-20T01:25:58.652Z,6.00
2019-06-20T01:28:29.137Z,5.95
2019-06-20T01:30:59.569Z,6.12
2019-06-20T01:33:30.066Z,7.47
2019-06-20T01:36:01.572Z,6.78
2019-06-20T01:38:32.004Z,6.20
2019-06-20T01:41:05.824Z,6.58
2019-06-20T01:43:46.703Z,5.50
2019-06-20T01:46:06.018Z,5.42
2019-06-20T01:48:36.262Z,5.12
2019-06-20T01:51:06.885Z,5.65
2019-06-20T01:53:37.384Z,4.90
2019-06-20T01:56:07.628Z,4.90
2019-06-20T01:58:38.109Z,5.50
2019-06-20T02:01:08.586Z,5.80
2019-06-20T02:03:38.782Z,5.65
2019-06-20T02:06:10.495Z,5.05
2019-06-20T02:08:40.691Z,5.00
2019-06-20T02:11:11.079Z,4.60
2019-06-20T02:13:41.624Z,6.33
2019-06-20T02:16:12.066Z,5.67
2019-06-20T02:18:42.358Z,4.00
2019-06-20T02:21:12.734Z,4.60
2019-06-20T02:23:42.908Z,5.20
2019-06-20T02:26:13.172Z,4.50
2019-06-20T02:28:43.674Z,4.95
2019-06-20T02:31:14.143Z,4.92
2019-06-20T02:33:44.634Z,5.22
2019-06-20T02:36:15.124Z,4.77
2019-06-20T02:38:45.549Z,4.83
2019-06-20T02:41:16.220Z,8.47
2019-06-20T02:43:46.729Z,8.60
2019-06-20T02:48:56.254Z,4.20
2019-06-20T02:51:27.939Z,4.77
2019-06-20T02:53:58.895Z,6.73
2019-06-20T02:56:29.048Z,8.00
2019-06-20T02:58:59.396Z,4.95
2019-06-20T03:01:29.917Z,5.67
2019-06-20T03:04:00.105Z,4.90
2019-06-20T03:06:30.795Z,5.12
2019-06-20T03:09:01.109Z,3.90
2019-06-20T03:11:31.392Z,3.55
2019-06-20T03:14:01.755Z,4.20
2019-06-20T03:16:32.087Z,3.60
2019-06-20T03:19:02.413Z,3.60
2019-06-20T03:21:32.833Z,3.52
2019-06-20T03:24:03.153Z,4.30
2019-06-20T03:26:33.543Z,3.60
2019-06-20T03:29:03.774Z,3.52
2019-06-20T03:31:33.849Z,2.80
2019-06-20T03:34:03.959Z,3.20
2019-06-20T03:36:34.396Z,3.37
2019-06-20T03:39:05.839Z,3.30
2019-06-20T03:41:36.200Z,3.67
2019-06-20T03:44:06.517Z,3.10
2019-06-20T03:46:36.812Z,3.40
2019-06-20T03:49:07.640Z,3.20
2019-06-20T03:51:37.832Z,3.70
2019-06-20T03:54:08.112Z,3.60
2019-06-20T03:56:38.343Z,3.30
2019-06-20T03:59:08.553Z,3.00
2019-06-20T04:01:38.788Z,3.20
2019-06-20T04:04:09.547Z,2.85
2019-06-20T04:06:39.898Z,3.20
2019-06-20T04:09:10.171Z,6.00
2019-06-20T04:11:40.754Z,3.25
2019-06-20T04:14:11.598Z,2.55
2019-06-20T04:16:42.081Z,2.80
2019-06-20T04:19:12.551Z,3.40
2019-06-20T04:21:42.638Z,3.10
2019-06-20T04:24:12.887Z,2.83
2019-06-20T04:26:43.165Z,2.90
2019-06-20T04:29:13.373Z,2.92
2019-06-20T04:31:43.597Z,3.17
2019-06-20T04:34:13.907Z,2.90
2019-06-20T04:36:44.107Z,4.42
2019-06-20T04:39:19.086Z,3.75
2019-06-20T04:41:46.605Z,2.75
2019-06-20T04:44:17.497Z,3.00
2019-06-20T04:46:48.903Z,3.67
2019-06-20T04:49:19.920Z,3.20
2019-06-20T04:51:50.389Z,3.72
2019-06-20T04:54:20.695Z,3.22
2019-06-20T04:56:51.085Z,3.55
2019-06-20T04:59:22.829Z,3.50
2019-06-20T05:01:52.990Z,2.85
2019-06-20T05:04:23.295Z,4.00
2019-06-20T05:06:56.360Z,2.80
2019-06-20T05:09:28.794Z,3.15
2019-06-20T05:11:58.973Z,3.67
2019-06-20T05:14:29.606Z,3.00
2019-06-20T05:17:00.164Z,2.60
2019-06-20T05:19:30.586Z,4.28
2019-06-20T05:22:01.051Z,2.87
2019-06-20T05:24:31.282Z,3.00
2019-06-20T05:27:01.454Z,2.70
2019-06-20T05:29:31.864Z,3.05
2019-06-20T05:32:02.071Z,2.50
2019-06-20T05:34:32.456Z,2.20
2019-06-20T05:37:02.886Z,2.95
2019-06-20T05:39:32.600Z,2.90
2019-06-20T05:42:02.717Z,2.92
2019-06-20T05:44:33.002Z,2.90
2019-06-20T05:47:12.671Z,3.65
2019-06-20T05:49:35.452Z,3.50
2019-06-20T05:52:06.357Z,2.80
2019-06-20T05:54:36.562Z,2.70
2019-06-20T05:57:06.872Z,5.78
2019-06-20T05:59:37.084Z,3.40
2019-06-20T06:02:07.287Z,2.70
2019-06-20T06:04:37.687Z,2.75
2019-06-20T06:07:08.111Z,2.52
2019-06-20T06:09:38.571Z,2.72
2019-06-20T06:12:09.811Z,2.97
2019-06-20T06:14:39.927Z,3.25
2019-06-20T06:17:10.471Z,6.22
2019-06-20T06:19:41.063Z,2.50
2019-06-20T06:22:11.177Z,3.10
2019-06-20T06:24:41.693Z,3.20
2019-06-20T06:27:12.163Z,5.28
2019-06-20T06:29:42.603Z,9.53
2019-06-20T06:32:13.198Z,3.20
2019-06-20T06:34:43.389Z,2.52
2019-06-20T06:37:13.549Z,1.90
2019-06-20T06:39:43.775Z,2.80
2019-06-20T06:42:14.250Z,2.00
2019-06-20T06:44:44.656Z,1.87
2019-06-20T06:47:15.065Z,2.00
2019-06-20T06:49:45.419Z,2.33
2019-06-20T06:52:15.596Z,1.80
2019-06-20T06:54:46.173Z,1.87
2019-06-20T06:57:16.446Z,1.85
2019-06-20T06:59:46.738Z,1.60
2019-06-20T07:02:17.157Z,1.60
2019-06-20T07:04:47.263Z,1.60
2019-06-20T07:07:17.581Z,1.70
2019-06-20T07:09:48.132Z,5.72
2019-06-20T07:12:18.533Z,2.80
2019-06-20T07:14:49.906Z,1.98
2019-06-20T07:17:20.137Z,2.80
2019-06-20T07:19:50.458Z,1.52
2019-06-20T07:22:20.642Z,4.12
2019-06-20T07:24:51.181Z,3.10
2019-06-20T07:27:21.295Z,3.03
2019-06-20T07:29:51.538Z,8.30
2019-06-20T07:32:21.823Z,4.05
2019-06-20T07:34:52.513Z,4.78
2019-06-20T07:37:22.900Z,3.40
2019-06-20T07:39:53.152Z,3.70
2019-06-20T07:42:23.593Z,4.28
2019-06-20T07:44:53.869Z,3.62
2019-06-20T07:47:24.993Z,6.73
2019-06-20T07:49:55.223Z,2.37
2019-06-20T07:52:25.357Z,2.95
2019-06-20T07:55:38.594Z,10.35
2019-06-20T07:58:09.334Z,4.30
2019-06-20T08:00:39.669Z,9.80
2019-06-20T08:03:09.783Z,5.27
2019-06-20T08:05:40.127Z,1.80
2019-06-20T08:08:10.436Z,2.87
2019-06-20T08:10:40.716Z,1.70
2019-06-20T08:13:10.987Z,1.85
2019-06-20T08:15:41.491Z,1.90
2019-06-20T08:18:11.775Z,1.60
2019-06-20T08:20:42.254Z,15.93
2019-06-20T08:23:12.673Z,1.90
2019-06-20T08:25:43.189Z,1.80
2019-06-20T08:28:13.540Z,2.02
2019-06-20T08:30:44.044Z,2.10
2019-06-20T08:33:14.641Z,6.15
2019-06-20T08:35:44.775Z,3.27
2019-06-20T08:38:15.076Z,1.63
2019-06-20T08:40:45.185Z,2.80
2019-06-20T08:43:15.583Z,1.85
2019-06-20T08:45:46.165Z,2.35
2019-06-20T08:48:16.789Z,2.40
2019-06-20T08:50:47.011Z,2.27
2019-06-20T08:53:17.755Z,1.75
2019-06-20T08:55:48.747Z,1.80
2019-06-20T08:58:18.943Z,1.70
2019-06-20T09:00:49.366Z,1.92
2019-06-20T09:03:19.610Z,1.77
2019-06-20T09:05:49.927Z,2.00
2019-06-20T09:08:20.164Z,2.05
2019-06-20T09:10:50.524Z,2.95
2019-06-20T09:13:20.722Z,2.25
2019-06-20T09:15:52.417Z,1.85
2019-06-20T09:18:22.826Z,2.00
2019-06-20T09:20:54.239Z,2.00
2019-06-20T09:23:24.784Z,4.30
2019-06-20T09:25:55.944Z,3.77
2019-06-20T09:28:26.250Z,2.40
2019-06-20T09:30:57.114Z,3.50
2019-06-20T09:33:27.414Z,2.27
2019-06-20T09:35:57.877Z,2.22
2019-06-20T09:38:28.344Z,2.20
2019-06-20T09:40:59.188Z,1.80
2019-06-20T09:43:29.725Z,8.45
2019-06-20T09:46:00.172Z,8.88
2019-06-20T09:48:32.291Z,10.18
2019-06-20T09:51:02.806Z,3.87
2019-06-20T09:53:32.992Z,6.37
2019-06-20T09:56:03.355Z,2.47
2019-06-20T09:58:33.692Z,4.50
2019-06-20T10:01:03.982Z,3.90
2019-06-20T10:03:34.285Z,7.73
2019-06-20T10:06:13.496Z,3.30
2019-06-20T10:08:35.983Z,3.23
2019-06-20T10:11:06.328Z,2.70
2019-06-20T10:14:30.071Z,2.12
2019-06-20T10:17:00.472Z,4.28
2019-06-20T10:19:30.939Z,5.03
2019-06-20T10:22:01.081Z,4.37
2019-06-20T10:24:31.294Z,4.35
2019-06-20T10:27:01.739Z,2.80
2019-06-20T10:29:31.899Z,3.52
2019-06-20T10:32:02.096Z,2.22
2019-06-20T10:34:32.612Z,2.50
2019-06-20T10:37:03.346Z,2.22
2019-06-20T10:39:33.608Z,2.25
2019-06-20T10:42:04.033Z,2.30
2019-06-20T10:44:34.263Z,2.30
2019-06-20T10:47:04.577Z,2.37
2019-06-20T10:49:34.985Z,2.12
2019-06-20T10:52:05.700Z,2.10
2019-06-20T10:54:35.923Z,3.10
2019-06-20T10:57:06.217Z,4.33
2019-06-20T10:59:36.340Z,2.40
2019-06-20T11:04:42.253Z,2.25
2019-06-20T11:07:12.591Z,2.58
2019-06-20T11:09:42.933Z,3.73
2019-06-20T11:12:13.160Z,3.40
2019-06-20T11:14:44.131Z,4.53
2019-06-20T11:17:14.542Z,9.55
2019-06-20T11:19:45.785Z,10.72
2019-06-20T11:22:16.025Z,5.72
2019-06-20T11:24:47.450Z,4.30
2019-06-20T11:27:17.984Z,13.43
2019-06-20T11:29:48.243Z,6.90
2019-06-20T11:32:18.783Z,24.37
2019-06-20T11:34:49.410Z,20.23
2019-06-20T11:37:19.884Z,20.83
2019-06-20T11:39:51.324Z,3.52
2019-06-20T11:42:21.983Z,4.00
2019-06-20T11:44:52.543Z,4.17
2019-06-20T11:47:22.868Z,17.60
2019-06-20T11:49:52.999Z,18.12
2019-06-20T11:52:23.533Z,17.42
2019-06-20T11:54:53.764Z,21.55
2019-06-20T11:57:24.023Z,14.17
2019-06-20T11:59:54.374Z,9.18
2019-06-20T12:02:24.848Z,11.60
2019-06-20T12:04:55.154Z,10.67
2019-06-20T12:07:25.592Z,14.43
2019-06-20T12:09:55.918Z,13.22
2019-06-20T12:12:26.064Z,6.70
2019-06-20T12:14:56.422Z,8.80
2019-06-20T12:17:26.632Z,11.73
2019-06-20T12:19:57.006Z,9.30
2019-06-20T12:22:27.321Z,17.57
2019-06-20T12:24:57.600Z,18.25
2019-06-20T12:27:27.900Z,16.10
2019-06-20T12:29:58.246Z,11.03
2019-06-20T12:32:28.772Z,10.70
2019-06-20T12:34:59.116Z,8.33
2019-06-20T12:37:29.247Z,7.30
2019-06-20T12:39:59.503Z,7.08
2019-06-20T12:42:29.806Z,6.70
2019-06-20T12:45:00.301Z,6.75
2019-06-20T12:47:30.587Z,6.95
2019-06-20T12:50:00.973Z,6.90
2019-06-20T12:52:31.058Z,7.37
2019-06-20T12:55:01.512Z,9.30
2019-06-20T12:57:31.959Z,8.00
2019-06-20T13:00:02.334Z,8.38
2019-06-20T13:02:32.475Z,8.53
2019-06-20T13:05:02.928Z,8.38
2019-06-20T13:07:33.265Z,8.43
2019-06-20T13:10:03.593Z,9.75
2019-06-20T13:12:33.964Z,8.60
2019-06-20T13:15:04.458Z,8.60
2019-06-20T13:17:35.710Z,8.40
2019-06-20T13:20:08.186Z,8.05
2019-06-20T13:22:39.568Z,8.73
2019-06-20T13:25:11.782Z,10.10
2019-06-20T13:27:43.239Z,9.10
2019-06-20T13:30:14.219Z,8.10
2019-06-20T13:32:45.434Z,8.07
2019-06-20T13:35:16.849Z,8.15
2019-06-20T13:37:47.928Z,7.37
2019-06-20T13:40:19.873Z,7.58
2019-06-20T13:42:50.334Z,8.33
2019-06-20T13:45:23.472Z,8.10
2019-06-20T13:47:53.875Z,7.85
2019-06-20T13:50:25.845Z,7.95
2019-06-20T13:52:56.471Z,8.75
2019-06-20T13:55:26.651Z,8.08
2019-06-20T13:57:56.854Z,7.87
2019-06-20T14:00:27.681Z,7.20
2019-06-20T14:02:57.796Z,7.58
2019-06-20T14:05:28.493Z,7.78
2019-06-20T14:07:59.187Z,8.25
2019-06-20T14:10:29.621Z,8.67
2019-06-20T14:12:59.810Z,8.50
2019-06-20T14:15:30.401Z,8.63
2019-06-20T14:18:00.626Z,9.38
2019-06-20T14:20:30.869Z,9.18
2019-06-20T14:23:01.241Z,8.48
2019-06-20T14:25:34.160Z,8.50
2019-06-20T14:28:03.361Z,9.38
2019-06-20T14:30:34.235Z,8.90
2019-06-20T14:33:04.566Z,9.48
2019-06-20T14:35:34.810Z,9.30
2019-06-20T14:38:05.126Z,9.23
2019-06-20T14:40:35.431Z,9.55
2019-06-20T14:43:05.677Z,9.50
2019-06-20T14:45:37.974Z,9.48
2019-06-20T14:48:07.680Z,10.23
2019-06-20T14:50:37.833Z,9.88
2019-06-20T14:53:08.238Z,10.18
2019-06-20T14:55:38.843Z,9.95
2019-06-20T14:58:08.999Z,9.70
2019-06-20T15:00:39.245Z,10.45
2019-06-20T15:03:09.567Z,10.43
2019-06-20T15:05:40.072Z,9.55
2019-06-20T15:08:10.402Z,10.13
2019-06-20T15:10:40.650Z,9.80
2019-06-20T15:13:10.920Z,10.30
2019-06-20T15:15:41.116Z,10.13
2019-06-20T15:18:11.469Z,10.18
2019-06-20T15:20:41.818Z,10.03
2019-06-20T15:23:12.158Z,10.20
2019-06-20T15:25:42.758Z,9.73
2019-06-20T15:28:13.163Z,9.90
2019-06-20T15:30:43.377Z,10.00
2019-06-20T15:33:13.668Z,10.70
2019-06-20T15:35:44.063Z,10.50
2019-06-20T15:38:14.219Z,9.83
2019-06-20T15:40:44.939Z,10.23
2019-06-20T15:43:15.363Z,11.18
2019-06-20T15:45:45.711Z,10.20
2019-06-20T15:48:16.689Z,10.40
2019-06-20T15:50:47.018Z,9.75
2019-06-20T15:53:17.702Z,10.45
2019-06-20T15:55:48.056Z,10.32
2019-06-20T15:58:18.372Z,10.65
2019-06-20T16:00:48.790Z,10.90
2019-06-20T16:03:19.006Z,10.03
2019-06-20T16:05:49.477Z,10.87
2019-06-20T16:08:19.905Z,10.58
2019-06-20T16:10:50.212Z,10.93
2019-06-20T16:13:20.389Z,11.65
2019-06-20T16:15:50.872Z,11.13
2019-06-20T16:18:21.256Z,11.48
2019-06-20T16:20:51.809Z,12.25
2019-06-20T16:23:22.176Z,12.47
2019-06-20T16:25:52.626Z,12.03
2019-06-20T16:28:23.284Z,12.13
2019-06-20T16:31:07.994Z,11.70
2019-06-20T16:33:25.909Z,12.28
2019-06-20T16:35:56.495Z,12.35
2019-06-20T16:38:26.565Z,13.05
2019-06-20T16:40:57.358Z,13.15
2019-06-20T16:43:27.570Z,12.07
2019-06-20T16:45:57.791Z,11.83
2019-06-20T16:48:28.185Z,11.22
2019-06-20T16:50:58.535Z,11.60
2019-06-20T16:53:28.793Z,12.10
2019-06-20T16:55:59.291Z,12.23
2019-06-20T16:58:29.395Z,11.70
2019-06-20T17:00:59.695Z,11.50
2019-06-20T17:03:41.092Z,12.20
2019-06-20T17:06:01.484Z,11.23
2019-06-20T17:08:32.203Z,11.63
2019-06-20T17:11:02.623Z,11.08
2019-06-20T17:13:32.889Z,11.48
2019-06-20T17:16:03.412Z,11.18
2019-06-20T17:18:33.959Z,11.00
2019-06-20T17:21:04.135Z,10.70
2019-06-20T17:23:34.342Z,10.20
2019-06-20T17:26:04.819Z,10.45
2019-06-20T17:28:35.072Z,10.30
2019-06-20T17:31:05.562Z,10.03
2019-06-20T17:33:35.899Z,10.50
2019-06-20T17:36:18.027Z,9.90
2019-06-20T17:38:37.668Z,9.95
2019-06-20T17:41:07.981Z,9.70
2019-06-20T17:43:38.269Z,9.60
2019-06-20T17:46:08.613Z,9.03
2019-06-20T17:48:38.981Z,8.80
2019-06-20T17:51:09.072Z,9.13
2019-06-20T17:53:39.274Z,8.37
2019-06-20T17:56:09.952Z,8.13
2019-06-20T17:58:40.244Z,7.85
2019-06-20T18:01:10.574Z,7.50
2019-06-20T18:03:41.172Z,7.33
2019-06-20T18:06:11.297Z,7.50
2019-06-20T18:08:41.547Z,6.95
2019-06-20T18:11:12.211Z,7.00
2019-06-20T18:13:42.452Z,7.05
2019-06-20T18:16:24.463Z,6.72
2019-06-20T18:18:44.363Z,6.58
2019-06-20T18:21:14.768Z,6.23
2019-06-20T18:23:45.163Z,6.03
2019-06-20T18:26:15.630Z,6.50
2019-06-20T18:28:45.797Z,7.35
2019-06-20T18:31:15.937Z,7.45
2019-06-20T18:33:46.254Z,6.83
2019-06-20T18:36:16.462Z,6.90
2019-06-20T18:38:46.734Z,6.83
2019-06-20T18:41:17.339Z,6.13
2019-06-20T18:43:48.159Z,6.37
2019-06-20T18:46:18.433Z,6.00
2019-06-20T18:48:48.935Z,6.50
2019-06-20T18:51:19.111Z,5.78
2019-06-20T18:53:50.705Z,5.80
2019-06-20T18:56:21.015Z,6.47
2019-06-20T18:58:51.376Z,6.10
2019-06-20T19:01:21.842Z,5.72
2019-06-20T19:03:52.473Z,5.60
2019-06-20T19:06:35.445Z,7.08
2019-06-20T19:08:54.860Z,6.37
2019-06-20T19:11:25.541Z,6.30
2019-06-20T19:13:55.904Z,6.13
2019-06-20T19:16:26.115Z,6.45
2019-06-20T19:18:55.925Z,5.87
2019-06-20T19:21:26.183Z,6.40
2019-06-20T19:23:56.437Z,6.90
2019-06-20T19:26:26.949Z,7.00
2019-06-20T19:28:57.158Z,6.65
2019-06-20T19:31:27.306Z,6.45
2019-06-20T19:33:57.925Z,6.00
2019-06-20T19:36:28.311Z,6.40
2019-06-20T19:38:58.503Z,6.47
2019-06-20T19:41:28.800Z,6.28
2019-06-20T19:43:58.928Z,6.75
2019-06-20T19:46:29.207Z,6.80
2019-06-20T19:48:59.551Z,6.50
2019-06-20T19:51:30.006Z,6.37
2019-06-20T19:54:00.234Z,6.97
2019-06-20T19:56:30.807Z,6.60
2019-06-20T19:59:01.099Z,6.90
2019-06-20T20:01:31.379Z,6.97
2019-06-20T20:04:01.924Z,6.58
2019-06-20T20:06:32.138Z,7.17
2019-06-20T20:09:02.421Z,6.95
2019-06-20T20:11:32.846Z,6.90
2019-06-20T20:14:03.702Z,7.00
2019-06-20T20:16:34.167Z,6.65
2019-06-20T20:19:04.583Z,6.67
2019-06-20T20:21:34.818Z,6.50
2019-06-20T20:24:05.106Z,6.92
2019-06-20T20:26:35.656Z,6.73
2019-06-20T20:29:06.220Z,7.12
2019-06-20T20:31:36.446Z,7.15
2019-06-20T20:34:07.489Z,7.05
2019-06-20T20:36:37.689Z,6.90
2019-06-20T20:39:08.722Z,6.92
2019-06-20T20:41:39.633Z,7.40
2019-06-20T20:44:09.826Z,7.67
2019-06-20T20:46:40.132Z,7.00
2019-06-20T20:49:10.438Z,7.78
2019-06-20T20:51:40.842Z,7.47
2019-06-20T20:54:10.938Z,7.28
2019-06-20T20:56:41.323Z,7.25
2019-06-20T20:59:12.062Z,7.10
2019-06-20T21:01:42.402Z,7.70
2019-06-20T21:04:12.685Z,7.30
2019-06-20T21:06:43.083Z,8.05
2019-06-20T21:09:13.275Z,7.67
2019-06-20T21:11:43.879Z,7.62
2019-06-20T21:14:14.084Z,7.67
2019-06-20T21:16:44.280Z,6.90
2019-06-20T21:19:14.686Z,7.55
2019-06-20T21:21:45.164Z,7.20
2019-06-20T21:24:15.419Z,6.72
2019-06-20T21:26:49.976Z,7.15
2019-06-20T21:29:17.634Z,6.97
2019-06-20T21:31:47.805Z,6.97
2019-06-20T21:34:17.967Z,6.70
2019-06-20T21:36:48.277Z,7.05
2019-06-20T21:39:18.510Z,6.37
2019-06-20T21:41:48.709Z,6.30
2019-06-20T21:44:19.195Z,6.40
2019-06-20T21:46:49.478Z,6.17
2019-06-20T21:49:19.662Z,5.90
2019-06-20T21:51:50.095Z,6.15
2019-06-20T21:54:20.344Z,6.00
2019-06-20T21:56:50.665Z,5.83
2019-06-20T21:59:21.298Z,6.40
2019-06-20T22:01:51.584Z,6.03
2019-06-20T22:04:21.893Z,6.28
2019-06-20T22:06:52.098Z,6.50
2019-06-20T22:09:22.254Z,6.15
2019-06-20T22:11:53.809Z,6.53
2019-06-20T22:14:24.004Z,6.55
2019-06-20T22:16:54.431Z,6.47
2019-06-20T22:19:24.622Z,5.87
2019-06-20T22:21:54.799Z,6.40
2019-06-20T22:24:25.193Z,6.47
2019-06-20T22:26:55.637Z,6.08
2019-06-20T22:29:25.754Z,6.50
2019-06-20T22:31:56.108Z,5.90
2019-06-20T22:34:26.499Z,6.30
2019-06-20T22:36:56.582Z,6.30
2019-06-20T22:39:26.863Z,6.60
2019-06-20T22:41:57.121Z,6.87
2019-06-20T22:44:27.321Z,6.43
2019-06-20T22:46:57.450Z,6.65
2019-06-20T22:49:27.707Z,6.80
2019-06-20T22:51:57.887Z,6.72
2019-06-20T22:54:28.242Z,6.65
2019-06-20T22:56:58.708Z,7.37
2019-06-20T22:59:29.039Z,6.42
2019-06-20T23:01:59.429Z,6.50
2019-06-20T23:04:29.721Z,6.73
2019-06-20T23:07:00.005Z,7.42
2019-06-20T23:09:30.626Z,7.53
2019-06-20T23:12:00.908Z,7.50
2019-06-20T23:14:31.106Z,8.18
2019-06-20T23:17:01.259Z,7.78
2019-06-20T23:19:32.330Z,7.25
2019-06-20T23:22:02.694Z,7.83
2019-06-20T23:24:32.997Z,7.80
2019-06-20T23:27:03.548Z,7.97
2019-06-20T23:29:33.814Z,15.80
2019-06-20T23:32:03.983Z,9.33
2019-06-20T23:34:34.266Z,9.23
2019-06-20T23:37:12.754Z,22.32
2019-06-20T23:39:36.095Z,8.28
2019-06-20T23:42:06.538Z,7.62
2019-06-20T23:44:36.711Z,8.58
2019-06-20T23:47:06.822Z,8.88
2019-06-20T23:49:37.455Z,8.70
2019-06-20T23:52:08.815Z,9.57
2019-06-20T23:54:38.962Z,8.10
2019-06-20T23:57:09.240Z,7.92
2019-06-20T23:59:40.345Z,7.42
